Time;durP1;ratioP1;P1;durP2;ratioP2;P2;SDS_P1;SDS_P2;PMS_P1;PMS_P2;Temp;Humidity;BMP_temperature;BMP_pressure;BME280_temperature;BME280_humidity;BME280_pressure;Samples;Min_cycle;Max_cycle;Signal;HPM_P1;HPM_P2
2023/01/22 00:02:05;;;;;;;4.25;3.35;;;15.10;76.00;;;;;;10470173;28;20123;-25
2023/01/22 00:07:08;;;;;;;;;;;15.00;75.80;;;;;;10461431;28;20482;-25
2023/01/22 00:12:10;;;;;;;4.20;3.20;;;15.10;75.70;;;;;;10453479;28;19964;-24
2023/01/22 00:17:13;;;;;;;7.28;4.13;;;15.00;75.70;;;;;;10449937;28;20100;-25
2023/01/22 00:22:16;;;;;;;5.88;3.47;;;15.00;75.50;;;;;;10472680;28;20519;-25
2023/01/22 00:27:18;;;;;;;6.57;3.90;;;15.00;75.80;;;;;;10456400;28;20099;-27
2023/01/22 00:32:19;;;;;;;8.23;4.57;;;15.00;75.70;;;;;;10451367;28;20539;-25
2023/01/22 00:37:23;;;;;;;10.77;5.83;;;15.00;75.50;;;;;;10448396;28;20073;-27
2023/01/22 00:42:24;;;;;;;10.95;5.97;;;15.00;75.60;;;;;;10449811;28;20080;-25
2023/01/22 00:47:26;;;;;;;16.23;8.50;;;14.90;75.80;;;;;;10452141;28;20041;-25
2023/01/22 00:52:30;;;;;;;18.77;8.27;;;14.90;75.70;;;;;;10453512;28;20068;-24
2023/01/22 00:57:32;;;;;;;19.73;9.98;;;14.90;76.30;;;;;;10451738;28;20125;-24
2023/01/22 01:03:25;;;;;;;26.45;10.77;;;14.90;75.50;;;;;;10448546;28;20067;-23
2023/01/22 01:07:57;;;;;;;24.15;11.52;;;14.90;75.50;;;;;;10445232;28;20053;-26
2023/01/22 01:12:59;;;;;;;26.33;13.15;;;14.80;75.60;;;;;;10460295;28;20468;-25
2023/01/22 01:18:01;;;;;;;24.90;11.90;;;14.80;75.50;;;;;;10460063;28;20555;-24
2023/01/22 01:23:04;;;;;;;30.53;14.57;;;14.80;75.50;;;;;;10454746;28;20068;-25
2023/01/22 01:28:06;;;;;;;26.50;12.88;;;14.70;75.20;;;;;;10457989;28;20064;-25
2023/01/22 01:33:07;;;;;;;24.92;13.00;;;14.80;75.40;;;;;;10447663;28;20049;-25
2023/01/22 01:38:11;;;;;;;29.80;13.95;;;14.80;75.20;;;;;;10450374;28;20147;-24
2023/01/22 01:43:17;;;;;;;29.40;13.82;;;14.70;75.10;;;;;;10451234;28;20128;-24
2023/01/22 01:48:26;;;;;;;26.38;12.25;;;14.70;75.30;;;;;;10445480;28;20049;-24
2023/01/22 01:53:30;;;;;;;30.83;14.32;;;14.70;74.90;;;;;;10450769;28;20059;-25
2023/01/22 01:58:34;;;;;;;27.92;13.30;;;14.70;75.20;;;;;;10450874;28;20064;-25
2023/01/22 02:03:36;;;;;;;27.02;12.23;;;14.60;75.20;;;;;;10445851;28;20390;-24
2023/01/22 02:08:40;;;;;;;29.20;13.97;;;14.60;75.20;;;;;;10435913;28;20040;-25
2023/01/22 02:13:46;;;;;;;26.45;12.68;;;14.60;75.20;;;;;;10450862;28;20140;-24
2023/01/22 02:18:48;;;;;;;19.90;9.75;;;14.50;75.20;;;;;;10448271;28;20460;-24
2023/01/22 02:23:51;;;;;;;23.88;11.65;;;14.50;75.10;;;;;;10455337;28;20075;-25
2023/01/22 02:28:53;;;;;;;23.15;11.30;;;14.50;74.90;;;;;;10449122;28;20511;-25
2023/01/22 02:33:55;;;;;;;24.15;11.13;;;14.50;75.20;;;;;;10445857;28;20807;-25
2023/01/22 02:38:59;;;;;;;19.47;9.77;;;14.50;74.40;;;;;;10444884;28;20076;-25
2023/01/22 02:44:01;;;;;;;20.95;9.73;;;14.50;75.10;;;;;;10434260;28;20138;-24
2023/01/22 02:49:03;;;;;;;22.13;10.43;;;14.40;75.40;;;;;;10450894;28;20095;-26
2023/01/22 02:54:06;;;;;;;21.70;10.13;;;14.40;75.80;;;;;;10443192;28;20076;-25
2023/01/22 02:59:08;;;;;;;17.05;8.90;;;14.40;75.70;;;;;;10446998;28;20037;-24
2023/01/22 03:04:10;;;;;;;19.77;9.33;;;14.40;76.00;;;;;;10452855;28;20045;-25
2023/01/22 03:09:15;;;;;;;17.40;7.57;;;14.30;75.90;;;;;;10448084;28;20136;-25
2023/01/22 03:25:00;;;;;;;16.90;8.38;;;14.30;76.30;;;;;;10449644;28;20053;-24
2023/01/22 03:30:02;;;;;;;15.23;7.85;;;14.30;76.10;;;;;;10452862;28;20045;-23
2023/01/22 03:35:04;;;;;;;15.43;7.77;;;14.30;76.10;;;;;;10457497;28;20045;-28
2023/01/22 03:40:09;;;;;;;19.55;9.52;;;14.30;76.50;;;;;;10456486;28;20045;-24
2023/01/22 03:45:11;;;;;;;13.40;6.80;;;14.30;76.30;;;;;;10455704;28;20060;-25
2023/01/22 03:50:13;;;;;;;12.88;6.63;;;14.20;76.20;;;;;;10468515;28;20126;-24
2023/01/22 03:55:17;;;;;;;13.57;6.73;;;14.20;76.80;;;;;;10455795;28;20148;-27
2023/01/22 04:00:19;;;;;;;13.38;6.28;;;14.20;76.20;;;;;;10456493;28;20461;-25
2023/01/22 04:05:24;;;;;;;9.77;5.20;;;14.20;76.00;;;;;;10457546;28;20075;-24
2023/01/22 04:10:27;;;;;;;9.15;4.82;;;13.90;75.40;;;;;;10454540;28;20442;-25
2023/01/22 04:15:29;;;;;;;11.07;5.75;;;14.10;76.80;;;;;;10450831;28;20434;-23
2023/01/22 04:20:31;;;;;;;7.60;4.60;;;14.20;76.10;;;;;;10461104;28;20044;-25
2023/01/22 04:25:34;;;;;;;10.70;5.15;;;14.10;76.10;;;;;;10461827;28;20072;-23
2023/01/22 04:30:36;;;;;;;7.18;4.15;;;14.10;75.80;;;;;;10462698;28;20669;-25
2023/01/22 04:35:39;;;;;;;10.83;4.57;;;14.10;76.00;;;;;;10453870;28;20083;-25
2023/01/22 04:40:42;;;;;;;8.43;4.63;;;14.10;76.10;;;;;;10453319;28;20087;-26
2023/01/22 04:45:44;;;;;;;8.40;4.03;;;14.10;76.20;;;;;;10453170;28;20452;-25
2023/01/22 04:50:46;;;;;;;9.00;5.30;;;14.10;76.00;;;;;;10451520;28;20045;-25
2023/01/22 04:55:49;;;;;;;10.27;4.93;;;14.00;76.10;;;;;;10456756;28;20049;-26
2023/01/22 05:00:51;;;;;;;8.15;3.60;;;14.00;75.60;;;;;;10452954;28;20126;-25
2023/01/22 05:05:53;;;;;;;6.53;3.90;;;14.00;76.00;;;;;;10448280;28;20068;-25
2023/01/22 05:11:00;;;;;;;7.38;3.70;;;13.90;76.20;;;;;;10448372;28;20049;-24
2023/01/22 05:16:02;;;;;;;7.65;4.03;;;13.90;76.00;;;;;;10456736;28;20079;-24
2023/01/22 05:21:04;;;;;;;6.13;3.40;;;14.00;76.00;;;;;;10460837;28;20071;-24
2023/01/22 05:26:07;;;;;;;5.53;3.33;;;13.90;75.40;;;;;;10453998;28;20045;-25
2023/01/22 05:31:09;;;;;;;5.78;3.75;;;14.00;75.50;;;;;;10453265;28;20159;-24
2023/01/22 05:36:12;;;;;;;7.10;3.90;;;14.00;75.60;;;;;;10461195;28;20049;-24
2023/01/22 05:41:15;;;;;;;6.82;3.78;;;14.00;75.30;;;;;;10451426;28;20045;-24
2023/01/22 05:46:17;;;;;;;4.85;2.92;;;13.90;75.80;;;;;;10450445;28;20565;-25
2023/01/22 05:51:19;;;;;;;6.47;3.67;;;14.00;75.50;;;;;;10450097;28;20053;-24
2023/01/22 05:56:22;;;;;;;5.77;3.57;;;14.10;75.40;;;;;;10450459;28;20158;-25
2023/01/22 06:01:24;;;;;;;5.45;3.13;;;14.20;75.10;;;;;;10452306;28;20557;-24
2023/01/22 06:06:26;;;;;;;5.37;3.07;;;14.20;75.00;;;;;;10449904;28;20076;-25
2023/01/22 06:11:29;;;;;;;4.10;2.30;;;14.30;74.70;;;;;;10451492;28;20048;-24
2023/01/22 06:16:31;;;;;;;5.43;2.25;;;14.30;74.70;;;;;;10449244;28;20088;-24
2023/01/22 06:21:33;;;;;;;3.42;2.53;;;14.40;74.70;;;;;;10452774;28;20056;-23
2023/01/22 06:26:36;;;;;;;4.20;2.58;;;14.40;74.70;;;;;;10439199;28;20045;-24
2023/01/22 06:31:38;;;;;;;4.07;2.00;;;14.50;74.60;;;;;;10448527;28;20503;-24
2023/01/22 06:36:39;;;;;;;2.13;1.80;;;14.60;75.10;;;;;;10451546;28;20143;-25
2023/01/22 06:41:43;;;;;;;2.50;1.67;;;14.60;74.60;;;;;;10444864;28;20133;-24
2023/01/22 06:46:45;;;;;;;2.00;1.60;;;14.60;74.80;;;;;;10447828;28;20482;-27
2023/01/22 06:51:47;;;;;;;3.60;1.65;;;14.70;74.70;;;;;;10450626;28;20052;-25
2023/01/22 06:56:50;;;;;;;2.63;1.75;;;14.70;74.50;;;;;;10449303;28;20107;-24
2023/01/22 07:14:30;;;;;;;2.15;1.40;;;14.70;74.50;;;;;;10502284;27;20460;-24
2023/01/22 07:19:32;;;;;;;2.20;1.48;;;14.80;74.90;;;;;;10460245;28;20037;-25
2023/01/22 07:24:34;;;;;;;1.17;1.00;;;14.70;75.20;;;;;;10464019;28;20290;-24
2023/01/22 07:29:37;;;;;;;1.00;0.60;;;14.70;74.50;;;;;;10470856;28;20621;-25
2023/01/22 07:34:39;;;;;;;1.05;0.60;;;14.50;75.00;;;;;;10463475;28;20063;-24
2023/01/22 07:39:41;;;;;;;1.48;0.80;;;14.80;75.00;;;;;;10466501;28;20048;-25
2023/01/22 07:44:44;;;;;;;2.87;1.50;;;14.70;75.60;;;;;;10473225;28;20041;-24
2023/01/22 07:49:46;;;;;;;1.60;1.10;;;14.60;75.70;;;;;;10481947;28;20556;-25
2023/01/22 07:54:48;;;;;;;13.60;1.30;;;14.80;75.40;;;;;;10491310;28;20123;-25
2023/01/22 07:59:51;;;;;;;5.70;0.93;;;14.80;75.40;;;;;;10477143;28;20041;-25
2023/01/22 08:04:53;;;;;;;2.03;1.10;;;14.80;75.60;;;;;;10471408;28;20064;-24
2023/01/22 08:09:55;;;;;;;3.73;0.83;;;14.80;75.40;;;;;;10479166;28;20076;-23
2023/01/22 08:14:58;;;;;;;6.07;0.70;;;14.90;73.70;;;;;;10484667;28;20040;-24
2023/01/22 08:20:00;;;;;;;11.15;1.17;;;14.90;75.10;;;;;;10471721;28;20410;-24
2023/01/22 08:25:02;;;;;;;6.80;2.03;;;14.60;75.90;;;;;;10449609;28;20819;-25
2023/01/22 08:30:07;;;;;;;6.10;0.63;;;14.30;75.10;;;;;;10448858;28;20077;-25
2023/01/22 08:35:09;;;;;;;2.50;0.80;;;14.80;75.60;;;;;;10443563;28;20072;-24
2023/01/22 08:40:12;;;;;;;1.23;0.80;;;14.70;76.70;;;;;;10438681;28;20460;-25
2023/01/22 08:45:15;;;;;;;1.75;0.82;;;14.30;78.20;;;;;;10454586;28;20049;-25
2023/01/22 08:50:18;;;;;;;1.23;0.55;;;14.60;76.40;;;;;;10454470;28;20057;-24
2023/01/22 08:55:20;;;;;;;1.85;1.00;;;14.90;75.40;;;;;;10444366;28;20041;-24
2023/01/22 09:00:24;;;;;;;4.73;0.90;;;14.30;75.70;;;;;;10463834;28;20051;-24
2023/01/22 09:05:27;;;;;;;2.88;1.17;;;14.90;75.40;;;;;;10436586;28;20049;-24
2023/01/22 09:10:29;;;;;;;2.00;1.10;;;14.90;74.80;;;;;;10422130;28;20056;-24
2023/01/22 09:15:32;;;;;;;1.95;0.80;;;15.00;74.90;;;;;;10441214;28;20065;-26
2023/01/22 09:20:34;;;;;;;1.70;1.00;;;14.90;75.50;;;;;;10435353;28;20055;-25
2023/01/22 09:25:36;;;;;;;2.23;1.57;;;14.40;76.50;;;;;;10438411;28;20065;-27
2023/01/22 09:30:41;;;;;;;2.17;0.90;;;13.80;77.90;;;;;;10438358;28;20057;-26
2023/01/22 09:35:42;;;;;;;2.25;0.93;;;14.20;79.20;;;;;;10430331;28;20381;-24
2023/01/22 09:40:48;;;;;;;2.40;0.82;;;14.70;78.20;;;;;;10434801;28;20094;-24
2023/01/22 09:45:54;;;;;;;5.32;1.73;;;14.90;77.00;;;;;;10434742;28;20053;-24
2023/01/22 09:50:56;;;;;;;6.68;1.02;;;14.90;76.00;;;;;;10442331;28;20048;-25
2023/01/22 09:55:58;;;;;;;5.10;2.17;;;15.10;75.80;;;;;;10464737;28;20063;-29
2023/01/22 10:01:04;;;;;;;7.53;2.78;;;15.10;75.20;;;;;;10448242;28;20914;-24
2023/01/22 10:06:12;;;;;;;4.97;1.63;;;14.90;75.00;;;;;;10443118;28;20434;-25
2023/01/22 10:11:13;;;;;;;2.08;1.02;;;15.00;75.40;;;;;;10460946;28;20084;-24
2023/01/22 10:16:17;;;;;;;4.20;1.40;;;15.00;75.30;;;;;;10447656;28;20040;-26
2023/01/22 10:21:23;;;;;;;2.47;0.90;;;15.30;73.80;;;;;;10429963;28;20470;-25
2023/01/22 10:26:32;;;;;;;0.80;0.60;;;15.10;75.20;;;;;;10420158;28;20045;-26
2023/01/22 10:31:38;;;;;;;4.13;0.93;;;15.30;74.50;;;;;;10432280;28;20088;-24
2023/01/22 10:36:40;;;;;;;4.07;0.80;;;15.50;73.60;;;;;;10422607;28;20056;-24
2023/01/22 10:41:47;;;;;;;2.97;0.90;;;15.40;73.90;;;;;;10442519;28;20152;-24
2023/01/22 10:46:51;;;;;;;1.98;0.63;;;15.50;73.30;;;;;;10449868;28;20132;-28
2023/01/22 10:51:55;;;;;;;1.73;0.80;;;15.60;73.00;;;;;;10438372;28;20037;-28
2023/01/22 10:57:06;;;;;;;1.73;0.85;;;15.60;73.00;;;;;;10433106;28;20045;-24
2023/01/22 11:02:18;;;;;;;1.60;0.65;;;15.60;73.50;;;;;;10427529;28;20491;-24
2023/01/22 11:07:23;;;;;;;3.42;0.80;;;15.50;73.50;;;;;;10436629;28;20124;-25
2023/01/22 11:12:29;;;;;;;5.25;0.70;;;15.60;72.90;;;;;;10431586;28;20592;-24
2023/01/22 11:17:38;;;;;;;2.95;0.80;;;15.70;72.60;;;;;;10440001;28;20053;-26
2023/01/22 11:22:45;;;;;;;4.75;0.77;;;15.60;72.90;;;;;;10442324;28;20041;-26
2023/01/22 11:27:59;;;;;;;2.78;0.70;;;15.60;72.80;;;;;;10444711;28;20067;-25
2023/01/22 11:33:14;;;;;;;4.43;0.80;;;15.70;72.50;;;;;;10443560;28;20051;-25
2023/01/22 11:38:21;;;;;;;2.78;0.60;;;15.70;72.40;;;;;;10423744;28;20041;-25
2023/01/22 11:43:38;;;;;;;1.55;0.80;;;15.50;73.00;;;;;;10459933;28;20180;-25
2023/01/22 11:48:57;;;;;;;1.45;0.82;;;15.50;73.70;;;;;;10426169;28;20048;-25
2023/01/22 11:54:24;;;;;;;2.60;0.70;;;15.70;72.40;;;;;;10425101;28;20100;-25
2023/01/22 11:59:39;;;;;;;2.13;1.05;;;15.70;72.60;;;;;;10420096;28;20037;-26
2023/01/22 12:05:07;;;;;;;4.43;1.17;;;15.40;73.30;;;;;;10430382;28;20049;-24
2023/01/22 12:10:28;;;;;;;3.03;0.75;;;15.70;72.60;;;;;;10426466;28;20177;-26
2023/01/22 12:15:42;;;;;;;4.13;1.10;;;15.80;72.40;;;;;;10418701;28;20095;-26
2023/01/22 12:20:58;;;;;;;9.35;1.90;;;15.70;73.30;;;;;;10434427;28;20037;-25
2023/01/22 12:26:05;;;;;;;3.70;1.33;;;15.80;72.70;;;;;;10442498;28;20060;-24
2023/01/22 12:31:13;;;;;;;2.15;1.10;;;15.70;73.30;;;;;;10434313;28;20052;-27
2023/01/22 12:36:21;;;;;;;2.95;1.23;;;15.80;73.20;;;;;;10429206;28;20088;-26
2023/01/22 12:41:49;;;;;;;2.22;1.13;;;15.60;73.80;;;;;;10422312;28;20041;-25
2023/01/22 12:47:02;;;;;;;4.75;1.55;;;15.70;73.80;;;;;;10435687;28;20397;-24
2023/01/22 12:52:34;;;;;;;15.38;7.10;;;15.70;73.30;;;;;;10449138;28;20049;-25
2023/01/22 12:57:39;;;;;;;15.02;6.90;;;15.90;72.90;;;;;;10434390;28;20424;-25
2023/01/22 13:02:41;;;;;;;24.15;11.70;;;15.60;73.30;;;;;;10417600;28;20096;-25
2023/01/22 13:07:44;;;;;;;25.10;11.13;;;15.90;72.40;;;;;;10419087;28;20052;-25
2023/01/22 13:12:48;;;;;;;30.05;13.23;;;15.90;72.70;;;;;;10443600;28;20092;-25
2023/01/22 13:17:57;;;;;;;28.33;10.15;;;15.80;73.00;;;;;;10458835;28;20090;-25
2023/01/22 13:23:01;;;;;;;22.63;11.43;;;15.90;72.80;;;;;;10461167;28;20456;-24
2023/01/22 13:28:04;;;;;;;25.08;12.75;;;15.80;73.00;;;;;;10446242;28;20045;-26
2023/01/22 13:33:13;;;;;;;21.70;10.90;;;15.80;73.40;;;;;;10418872;28;20045;-26
2023/01/22 13:38:20;;;;;;;16.73;9.43;;;15.70;72.00;;;;;;10431714;28;20065;-25
2023/01/22 13:43:23;;;;;;;22.45;10.70;;;16.00;72.70;;;;;;10451271;28;20128;-26
2023/01/22 13:48:26;;;;;;;17.23;7.60;;;16.10;72.60;;;;;;10455419;28;20033;-25
2023/01/22 13:53:31;;;;;;;;;;;16.00;72.80;;;;;;10449464;28;20331;-25
2023/01/22 13:58:38;;;;;;;11.13;6.20;;;16.00;72.70;;;;;;10435376;28;19921;-26
2023/01/22 14:03:42;;;;;;;18.48;10.23;;;16.00;73.00;;;;;;10441793;28;20045;-25
2023/01/22 14:08:54;;;;;;;16.88;8.68;;;15.70;74.00;;;;;;10432431;28;20157;-25
2023/01/22 14:13:56;;;;;;;20.43;10.70;;;15.70;74.60;;;;;;10428276;28;20053;-25
2023/01/22 14:18:57;;;;;;;16.60;7.63;;;16.00;73.00;;;;;;10430921;28;20073;-25
2023/01/22 14:24:01;;;;;;;23.93;11.63;;;15.90;72.30;;;;;;10433551;28;20069;-26
2023/01/22 14:29:03;;;;;;;19.83;10.75;;;15.80;73.30;;;;;;10434921;28;20499;-24
2023/01/22 14:34:05;;;;;;;21.92;10.30;;;15.90;72.90;;;;;;10425795;28;20056;-25
2023/01/22 14:39:09;;;;;;;19.85;10.25;;;16.00;72.70;;;;;;10430198;28;20063;-25
2023/01/22 14:44:11;;;;;;;24.25;11.52;;;16.00;72.70;;;;;;10432392;28;20125;-25
2023/01/22 14:49:12;;;;;;;17.00;8.60;;;16.00;72.40;;;;;;10439214;28;20453;-22
2023/01/22 14:54:16;;;;;;;9.77;5.33;;;15.90;72.50;;;;;;10453325;28;20481;-24
2023/01/22 14:59:17;;;;;;;16.05;7.00;;;16.10;72.20;;;;;;10456799;28;20044;-25
2023/01/22 15:04:19;;;;;;;19.90;10.13;;;16.00;72.20;;;;;;10450291;28;20120;-26
2023/01/22 15:09:22;;;;;;;10.97;5.83;;;16.10;72.50;;;;;;10445215;28;20546;-25
2023/01/22 15:14:25;;;;;;;16.85;7.38;;;16.00;73.30;;;;;;10441778;28;20063;-27
2023/01/22 15:19:27;;;;;;;13.77;6.50;;;16.10;73.00;;;;;;10430925;28;20102;-25
2023/01/22 15:24:30;;;;;;;14.85;6.57;;;16.00;73.40;;;;;;10442855;28;20124;-25
2023/01/22 15:29:32;;;;;;;17.20;8.52;;;16.10;73.10;;;;;;10451847;28;20056;-23
2023/01/22 15:34:34;;;;;;;12.73;5.93;;;16.20;73.00;;;;;;10460483;28;20103;-25
2023/01/22 15:39:37;;;;;;;13.90;7.57;;;16.20;73.10;;;;;;10443533;28;20126;-24
2023/01/22 15:44:39;;;;;;;13.23;7.10;;;15.90;74.40;;;;;;10452656;28;20068;-25
2023/01/22 15:49:41;;;;;;;17.13;7.30;;;16.10;73.70;;;;;;10453271;28;20068;-28
2023/01/22 15:54:45;;;;;;;13.13;7.13;;;15.90;74.70;;;;;;10448158;28;20048;-25
2023/01/22 15:59:46;;;;;;;10.32;5.63;;;16.10;73.70;;;;;;10451600;28;20554;-29
2023/01/22 16:04:48;;;;;;;15.63;7.07;;;16.10;73.50;;;;;;10458912;28;20080;-25
2023/01/22 16:09:52;;;;;;;14.37;6.87;;;16.20;73.60;;;;;;10447854;28;20504;-25
2023/01/22 16:14:54;;;;;;;17.70;8.55;;;16.20;73.40;;;;;;10443455;28;20099;-24
2023/01/22 16:19:57;;;;;;;12.17;5.70;;;16.20;73.50;;;;;;10432961;28;20098;-25
2023/01/22 16:25:01;;;;;;;13.85;5.97;;;16.20;73.40;;;;;;10445531;28;20081;-24
2023/01/22 16:30:03;;;;;;;15.43;6.03;;;16.20;73.50;;;;;;10432910;28;20122;-25
2023/01/22 16:35:05;;;;;;;15.25;7.82;;;16.20;73.40;;;;;;10442002;28;20114;-26
2023/01/22 16:40:10;;;;;;;13.52;6.82;;;15.40;75.10;;;;;;10446672;28;20116;-25
2023/01/22 16:45:11;;;;;;;15.57;7.93;;;15.70;75.20;;;;;;10450615;28;20044;-26
2023/01/22 16:50:13;;;;;;;15.30;8.13;;;15.30;76.10;;;;;;10439509;28;20053;-25
2023/01/22 16:55:16;;;;;;;17.83;8.73;;;14.80;78.70;;;;;;10450484;28;20049;-25
2023/01/22 17:00:19;;;;;;;17.30;8.80;;;14.30;77.80;;;;;;10442695;28;20037;-27
2023/01/22 17:05:21;;;;;;;19.20;9.13;;;14.60;74.30;;;;;;10442686;28;20045;-25
2023/01/22 17:10:25;;;;;;;20.63;10.40;;;15.10;78.10;;;;;;10446129;28;20119;-27
2023/01/22 17:15:26;;;;;;;16.10;8.98;;;14.90;78.80;;;;;;10444683;28;20049;-24
2023/01/22 17:20:28;;;;;;;15.50;8.20;;;15.00;77.80;;;;;;10457110;28;20049;-25
2023/01/22 17:25:32;;;;;;;16.55;9.27;;;14.60;79.50;;;;;;10431821;28;20037;-25
2023/01/22 17:30:34;;;;;;;16.35;7.65;;;14.40;81.50;;;;;;10442422;28;20123;-27
2023/01/22 17:35:35;;;;;;;13.53;6.67;;;13.80;83.10;;;;;;10439152;28;20130;-27
2023/01/22 17:40:39;;;;;;;15.95;8.70;;;11.80;80.80;;;;;;10443864;28;20045;-25
2023/01/22 17:45:41;;;;;;;22.83;9.38;;;13.30;90.20;;;;;;10443903;28;20053;-25
2023/01/22 17:50:43;;;;;;;22.10;9.87;;;14.40;84.70;;;;;;10436162;28;20474;-26
2023/01/22 17:55:46;;;;;;;19.67;10.63;;;14.00;77.50;;;;;;10440627;28;20084;-25
2023/01/22 18:00:48;;;;;;;16.42;8.85;;;13.30;87.80;;;;;;10450518;28;20036;-25
2023/01/22 18:05:53;;;;;;;20.83;9.67;;;13.50;85.20;;;;;;10425796;28;20038;-26
2023/01/22 18:10:57;;;;;;;18.48;10.32;;;13.90;86.50;;;;;;10431903;28;20076;-26
2023/01/22 18:16:01;;;;;;;22.35;10.27;;;14.60;82.10;;;;;;10420821;28;20143;-26
2023/01/22 18:21:03;;;;;;;16.38;8.85;;;14.90;79.80;;;;;;10430577;28;20041;-25
2023/01/22 18:26:07;;;;;;;24.80;9.97;;;14.90;79.10;;;;;;10446330;28;20041;-24
2023/01/22 18:31:11;;;;;;;20.38;10.43;;;14.90;78.30;;;;;;10435988;28;20338;-23
2023/01/22 18:36:16;;;;;;;19.00;9.77;;;15.00;78.20;;;;;;10445052;28;20084;-25
2023/01/22 18:41:22;;;;;;;20.63;9.50;;;14.70;79.80;;;;;;10452751;28;20067;-26
2023/01/22 18:46:27;;;;;;;19.02;9.43;;;15.00;78.00;;;;;;10448089;28;20032;-26
2023/01/22 18:51:29;;;;;;;20.58;9.65;;;15.00;77.60;;;;;;10445818;28;20040;-26
2023/01/22 18:56:32;;;;;;;22.35;10.00;;;14.90;77.50;;;;;;10443278;28;20049;-26
2023/01/22 19:01:36;;;;;;;20.23;9.10;;;14.80;78.40;;;;;;10449972;28;20037;-26
2023/01/22 19:06:38;;;;;;;20.42;8.80;;;14.80;78.40;;;;;;10429801;28;20046;-25
2023/01/22 19:11:45;;;;;;;21.50;8.25;;;14.90;78.00;;;;;;10433576;28;20061;-26
2023/01/22 19:16:51;;;;;;;15.80;8.13;;;14.60;77.40;;;;;;10428414;28;20045;-24
2023/01/22 19:21:56;;;;;;;18.77;7.97;;;14.40;79.70;;;;;;10431040;28;20049;-27
2023/01/22 19:27:00;;;;;;;18.13;9.35;;;14.50;80.20;;;;;;10446268;28;20064;-25
2023/01/22 19:32:02;;;;;;;13.48;7.10;;;14.70;78.80;;;;;;10438778;28;20042;-25
2023/01/22 19:37:05;;;;;;;20.13;9.30;;;15.10;77.20;;;;;;10420446;28;20550;-26
2023/01/22 19:42:08;;;;;;;15.50;7.57;;;15.40;76.10;;;;;;10442344;28;20041;-25
2023/01/22 19:47:12;;;;;;;12.10;6.35;;;15.50;75.80;;;;;;10438563;28;20073;-24
2023/01/22 19:52:14;;;;;;;13.88;6.72;;;15.50;75.60;;;;;;10438995;28;20045;-25
2023/01/22 19:57:17;;;;;;;12.57;6.50;;;15.60;75.60;;;;;;10437133;28;20856;-24
2023/01/22 20:02:20;;;;;;;11.05;5.80;;;15.50;75.50;;;;;;10431366;28;20147;-25
2023/01/22 20:07:24;;;;;;;12.15;5.82;;;15.50;75.60;;;;;;10433259;28;21390;-26
2023/01/22 20:12:27;;;;;;;8.30;4.15;;;15.60;75.20;;;;;;10426597;28;20483;-25
2023/01/22 20:17:28;;;;;;;13.55;5.40;;;15.60;75.20;;;;;;10443138;28;20119;-25
2023/01/22 20:22:30;;;;;;;10.67;5.23;;;15.60;75.40;;;;;;10429304;28;20132;-26
2023/01/22 20:27:34;;;;;;;9.00;4.80;;;15.70;75.40;;;;;;10427720;28;20049;-28
2023/01/22 20:32:37;;;;;;;8.82;4.55;;;15.80;74.90;;;;;;10431221;28;20051;-25
2023/01/22 20:37:41;;;;;;;10.32;5.32;;;15.70;75.10;;;;;;10421299;28;20068;-25
2023/01/22 20:42:44;;;;;;;10.68;5.05;;;15.70;74.90;;;;;;10440356;28;20056;-25
2023/01/22 20:47:47;;;;;;;9.50;4.80;;;15.80;74.60;;;;;;10437323;28;20134;-25
2023/01/22 20:52:49;;;;;;;9.52;5.03;;;15.80;74.50;;;;;;10442670;28;20068;-25
2023/01/22 20:57:52;;;;;;;8.25;4.28;;;15.80;74.40;;;;;;10433702;28;20059;-26
2023/01/22 21:02:54;;;;;;;8.73;4.32;;;15.80;74.50;;;;;;10428886;28;20099;-26
2023/01/22 21:07:56;;;;;;;10.85;5.00;;;15.80;74.30;;;;;;10428692;28;20103;-25
2023/01/22 21:12:59;;;;;;;8.85;4.25;;;15.80;74.30;;;;;;10436126;28;20049;-25
2023/01/22 21:18:01;;;;;;;6.60;4.03;;;15.90;73.80;;;;;;10448585;28;20048;-25
2023/01/22 21:23:03;;;;;;;6.23;3.57;;;15.90;73.60;;;;;;10457158;28;20485;-27
2023/01/22 21:28:06;;;;;;;10.30;4.30;;;15.90;73.40;;;;;;10429537;28;20056;-25
2023/01/22 21:33:08;;;;;;;8.20;4.10;;;15.90;73.40;;;;;;10431395;28;20080;-25
2023/01/22 21:38:10;;;;;;;8.10;3.78;;;15.90;73.40;;;;;;10425066;28;21140;-25
2023/01/22 21:48:35;;;;;;;6.10;3.30;;;15.80;73.40;;;;;;10434116;28;20409;-24
2023/01/22 21:53:37;;;;;;;10.10;3.50;;;15.80;73.40;;;;;;10458198;28;20431;-27
2023/01/22 21:58:44;;;;;;;5.50;3.20;;;15.80;73.20;;;;;;10450482;28;20053;-26
2023/01/22 22:03:45;;;;;;;7.45;3.42;;;15.80;73.00;;;;;;10443453;28;20114;-25
2023/01/22 22:08:47;;;;;;;9.10;3.67;;;15.80;73.00;;;;;;10426033;28;20465;-26
2023/01/22 22:13:50;;;;;;;7.00;3.73;;;15.80;73.00;;;;;;10444312;28;20139;-26
2023/01/22 22:18:55;;;;;;;5.32;3.22;;;15.80;73.50;;;;;;10449214;28;20148;-26
2023/01/22 22:23:57;;;;;;;6.70;3.20;;;15.80;73.00;;;;;;10449431;28;20367;-26
2023/01/22 22:29:01;;;;;;;3.47;2.35;;;15.70;73.00;;;;;;10446814;28;20151;-25
2023/01/22 22:34:03;;;;;;;8.38;3.30;;;15.70;72.90;;;;;;10457393;28;20053;-25
2023/01/22 22:39:06;;;;;;;4.28;2.60;;;15.70;72.70;;;;;;10446729;28;20048;-26
2023/01/22 22:44:10;;;;;;;9.10;3.35;;;15.70;72.60;;;;;;10435903;28;20059;-25
2023/01/22 22:49:13;;;;;;;4.45;2.25;;;15.70;72.40;;;;;;10433717;28;20256;-25
2023/01/22 22:54:18;;;;;;;4.72;2.50;;;15.60;72.70;;;;;;10448185;28;20863;-25
2023/01/22 22:59:21;;;;;;;5.07;2.70;;;15.60;72.60;;;;;;10439583;28;20081;-25
2023/01/22 23:04:23;;;;;;;5.78;3.42;;;15.70;72.50;;;;;;10449914;28;20049;-24
2023/01/22 23:09:25;;;;;;;5.10;2.30;;;15.60;72.50;;;;;;10444482;28;20063;-25
2023/01/22 23:14:29;;;;;;;4.30;2.72;;;15.60;72.30;;;;;;10443770;28;20049;-24
2023/01/22 23:19:31;;;;;;;3.90;2.80;;;15.60;72.10;;;;;;10434956;28;20128;-24
2023/01/22 23:24:33;;;;;;;4.47;2.45;;;15.60;72.30;;;;;;10438243;28;20069;-26
2023/01/22 23:29:36;;;;;;;3.90;2.70;;;15.60;72.20;;;;;;10432816;28;20060;-27
2023/01/22 23:34:38;;;;;;;5.07;2.40;;;15.60;72.10;;;;;;10462759;28;20101;-25
2023/01/22 23:39:40;;;;;;;5.63;2.87;;;15.60;72.00;;;;;;10441024;28;20067;-27
2023/01/22 23:44:43;;;;;;;4.83;3.07;;;15.60;72.00;;;;;;10439513;28;20106;-26
2023/01/22 23:49:45;;;;;;;5.80;2.63;;;15.60;72.60;;;;;;10441176;28;20139;-25
2023/01/22 23:54:47;;;;;;;3.23;2.00;;;15.50;72.00;;;;;;10444638;28;20103;-25
2023/01/22 23:59:50;;;;;;;3.73;1.87;;;15.50;72.60;;;;;;10450165;28;20033;-26
